createdAt,value
2023-11-25T00:01:07.256Z,6.15
2023-11-25T00:03:35.626Z,6.55
2023-11-25T00:06:04.651Z,8.10
2023-11-25T00:08:33.565Z,5.20
2023-11-25T00:11:01.724Z,6.80
2023-11-25T00:13:29.886Z,5.45
2023-11-25T00:15:59.339Z,9.60
2023-11-25T00:18:27.595Z,8.45
2023-11-25T00:20:55.671Z,5.93
2023-11-25T00:23:23.810Z,5.43
2023-11-25T00:25:54.379Z,6.68
2023-11-25T00:28:22.569Z,8.00
2023-11-25T00:30:50.824Z,5.20
2023-11-25T00:33:20.331Z,6.03
2023-11-25T00:35:49.191Z,2.95
2023-11-25T00:38:17.308Z,8.32
2023-11-25T00:40:45.451Z,7.78
2023-11-25T00:43:14.248Z,6.20
2023-11-25T00:45:43.327Z,9.60
2023-11-25T00:48:11.650Z,4.50
2023-11-25T00:50:41.213Z,6.40
2023-11-25T00:53:09.431Z,9.85
2023-11-25T00:55:37.800Z,7.50
2023-11-25T00:58:07.261Z,6.70
2023-11-25T01:00:35.929Z,5.85
2023-11-25T01:03:04.166Z,5.95
2023-11-25T01:05:32.266Z,9.50
2023-11-25T01:08:01.689Z,4.17
2023-11-25T01:10:29.867Z,6.50
2023-11-25T01:12:57.961Z,8.02
2023-11-25T01:15:26.411Z,4.30
2023-11-25T01:17:54.602Z,7.35
2023-11-25T01:20:23.241Z,5.38
2023-11-25T01:22:51.393Z,4.20
2023-11-25T01:25:21.131Z,7.88
2023-11-25T01:27:49.652Z,5.78
2023-11-25T01:30:17.822Z,5.32
2023-11-25T01:32:45.979Z,6.20
2023-11-25T01:35:14.184Z,6.80
2023-11-25T01:37:42.325Z,8.70
2023-11-25T01:40:13.772Z,7.78
2023-11-25T01:42:43.935Z,8.48
2023-11-25T01:45:13.607Z,5.35
2023-11-25T01:47:43.111Z,4.80
2023-11-25T01:50:12.539Z,5.63
2023-11-25T01:52:41.862Z,10.25
2023-11-25T01:55:11.044Z,6.80
2023-11-25T01:57:39.692Z,11.18
2023-11-25T02:00:11.145Z,9.63
2023-11-25T02:02:44.981Z,4.55
2023-11-25T02:05:13.595Z,6.45
2023-11-25T02:07:42.976Z,5.03
2023-11-25T02:10:12.524Z,3.90
2023-11-25T02:12:40.892Z,7.95
2023-11-25T02:15:12.527Z,5.32
2023-11-25T02:17:43.695Z,8.60
2023-11-25T02:20:14.851Z,4.72
2023-11-25T02:22:44.781Z,6.70
2023-11-25T02:25:16.351Z,5.85
2023-11-25T02:27:44.592Z,6.88
2023-11-25T02:30:14.829Z,8.43
2023-11-25T02:32:43.403Z,5.88
2023-11-25T02:35:15.793Z,10.00
2023-11-25T02:37:45.822Z,4.88
2023-11-25T02:40:17.919Z,9.35
2023-11-25T02:42:48.411Z,4.80
2023-11-25T02:45:20.130Z,5.57
2023-11-25T02:47:48.947Z,9.52
2023-11-25T02:50:17.954Z,7.00
2023-11-25T02:52:47.617Z,6.93
2023-11-25T02:55:17.637Z,7.15
2023-11-25T02:57:48.018Z,8.70
2023-11-25T03:00:29.077Z,7.53
2023-11-25T03:03:09.183Z,8.00
2023-11-25T03:05:39.200Z,8.27
2023-11-25T03:08:11.042Z,12.43
2023-11-25T03:10:43.712Z,15.77
2023-11-25T03:13:12.558Z,7.30
2023-11-25T03:15:41.280Z,12.30
2023-11-25T03:18:11.684Z,7.13
2023-11-25T03:20:41.914Z,9.20
2023-11-25T03:23:10.109Z,15.80
2023-11-25T03:25:40.076Z,8.70
2023-11-25T03:28:11.975Z,17.08
2023-11-25T03:30:41.867Z,17.10
2023-11-25T03:33:10.780Z,13.10
2023-11-25T03:35:39.148Z,14.23
2023-11-25T03:38:07.462Z,11.25
2023-11-25T03:40:35.619Z,10.88
2023-11-25T03:43:03.738Z,12.20
2023-11-25T03:45:33.397Z,18.70
2023-11-25T03:48:01.692Z,14.90
2023-11-25T03:50:30.453Z,19.25
2023-11-25T03:52:58.609Z,18.83
2023-11-25T03:55:26.807Z,21.67
2023-11-25T03:57:54.939Z,26.52
2023-11-25T04:00:23.943Z,18.10
2023-11-25T04:02:54.002Z,23.45
2023-11-25T04:05:23.789Z,18.15
2023-11-25T04:07:51.957Z,16.42
2023-11-25T04:10:20.098Z,17.48
2023-11-25T04:12:50.070Z,17.20
2023-11-25T04:15:21.687Z,20.55
2023-11-25T04:17:51.541Z,23.48
2023-11-25T04:20:25.933Z,17.27
2023-11-25T04:22:54.762Z,15.20
2023-11-25T04:25:23.939Z,18.33
2023-11-25T04:27:52.589Z,18.65
2023-11-25T04:30:20.759Z,19.10
2023-11-25T04:32:50.188Z,15.57
2023-11-25T04:35:20.672Z,11.27
2023-11-25T04:37:48.923Z,13.65
2023-11-25T04:40:19.244Z,17.10
2023-11-25T04:42:47.437Z,14.55
2023-11-25T04:45:18.159Z,16.52
2023-11-25T04:47:47.569Z,16.17
2023-11-25T04:50:16.431Z,14.35
2023-11-25T04:52:46.220Z,15.73
2023-11-25T04:55:16.230Z,18.60
2023-11-25T04:57:45.431Z,14.10
2023-11-25T05:00:16.218Z,16.85
2023-11-25T05:02:44.883Z,14.27
2023-11-25T05:05:14.236Z,11.68
2023-11-25T05:07:42.967Z,8.95
2023-11-25T05:10:13.059Z,15.65
2023-11-25T05:12:42.654Z,14.02
2023-11-25T05:15:11.952Z,15.80
2023-11-25T05:17:40.760Z,15.70
2023-11-25T05:20:16.620Z,14.35
2023-11-25T05:22:44.878Z,11.93
2023-11-25T05:25:16.201Z,12.02
2023-11-25T05:27:44.898Z,20.40
2023-11-25T05:30:14.975Z,14.07
2023-11-25T05:32:44.173Z,18.73
2023-11-25T05:35:13.958Z,13.10
2023-11-25T05:37:44.249Z,12.70
2023-11-25T05:40:15.603Z,18.92
2023-11-25T05:42:49.445Z,20.60
2023-11-25T05:45:19.455Z,19.63
2023-11-25T05:47:47.984Z,13.57
2023-11-25T05:50:21.620Z,14.07
2023-11-25T05:52:50.329Z,18.67
2023-11-25T05:55:21.831Z,18.98
2023-11-25T05:57:51.805Z,22.40
2023-11-25T06:00:21.774Z,25.48
2023-11-25T06:02:49.826Z,19.40
2023-11-25T06:05:18.097Z,21.42
2023-11-25T06:07:46.432Z,22.50
2023-11-25T06:10:14.913Z,26.33
2023-11-25T06:12:44.881Z,21.15
2023-11-25T06:15:14.746Z,17.52
2023-11-25T06:17:43.115Z,18.67
2023-11-25T06:20:12.333Z,19.27
2023-11-25T06:22:42.234Z,25.17
2023-11-25T06:25:11.132Z,20.63
2023-11-25T06:27:39.505Z,16.80
2023-11-25T06:30:10.436Z,21.38
2023-11-25T06:32:38.667Z,17.75
2023-11-25T06:35:07.808Z,14.48
2023-11-25T06:37:37.297Z,14.85
2023-11-25T06:40:07.297Z,11.77
2023-11-25T06:42:35.393Z,15.00
2023-11-25T06:45:04.518Z,18.02
2023-11-25T06:47:34.140Z,14.55
2023-11-25T06:50:02.349Z,22.13
2023-11-25T06:52:30.477Z,13.93
2023-11-25T06:55:00.289Z,17.38
2023-11-25T06:57:28.608Z,15.77
2023-11-25T06:59:57.663Z,16.20
2023-11-25T07:02:28.119Z,14.35
2023-11-25T07:04:57.696Z,15.70
2023-11-25T07:07:26.165Z,11.82
2023-11-25T07:09:54.234Z,10.90
2023-11-25T07:12:22.289Z,18.85
2023-11-25T07:14:50.669Z,17.23
2023-11-25T07:17:18.912Z,13.70
2023-11-25T07:19:47.133Z,18.10
2023-11-25T07:22:16.724Z,19.80
2023-11-25T07:24:47.639Z,14.40
2023-11-25T07:27:19.508Z,11.48
2023-11-25T07:29:47.866Z,11.53
2023-11-25T07:32:17.082Z,9.73
2023-11-25T07:34:45.711Z,10.60
2023-11-25T07:37:13.920Z,8.40
2023-11-25T07:39:43.636Z,7.57
2023-11-25T07:42:11.846Z,11.57
2023-11-25T07:44:39.924Z,8.27
2023-11-25T07:47:08.365Z,6.05
2023-11-25T07:49:37.864Z,10.27
2023-11-25T07:52:06.470Z,9.77
2023-11-25T07:54:34.521Z,9.38
2023-11-25T07:57:04.975Z,9.27
2023-11-25T07:59:33.048Z,12.02
2023-11-25T08:02:01.194Z,7.05
2023-11-25T08:04:29.380Z,9.23
2023-11-25T08:06:57.440Z,8.33
2023-11-25T08:09:25.735Z,8.77
2023-11-25T08:11:54.413Z,6.25
2023-11-25T08:14:23.853Z,5.53
2023-11-25T08:16:52.620Z,5.35
2023-11-25T08:19:22.458Z,10.43
2023-11-25T08:21:50.760Z,8.00
2023-11-25T08:24:19.797Z,6.97
2023-11-25T08:26:48.348Z,6.82
2023-11-25T08:29:16.866Z,5.40
2023-11-25T08:31:46.387Z,8.10
2023-11-25T08:34:15.214Z,12.25
2023-11-25T08:36:54.331Z,9.00
2023-11-25T08:39:26.566Z,9.75
2023-11-25T08:41:56.230Z,7.75
2023-11-25T08:44:24.375Z,7.77
2023-11-25T08:46:54.794Z,7.05
2023-11-25T08:49:25.295Z,9.13
2023-11-25T08:51:53.542Z,8.13
2023-11-25T08:54:22.034Z,8.75
2023-11-25T08:56:52.342Z,9.20
2023-11-25T08:59:21.892Z,9.48
2023-11-25T09:01:52.695Z,12.93
2023-11-25T09:04:23.681Z,7.60
2023-11-25T09:06:52.559Z,9.57
2023-11-25T09:09:22.396Z,8.73
2023-11-25T09:11:50.509Z,6.80
2023-11-25T09:14:20.097Z,8.85
2023-11-25T09:16:48.594Z,9.50
2023-11-25T09:19:16.758Z,10.88
2023-11-25T09:21:46.764Z,10.35
2023-11-25T09:24:14.880Z,6.88
2023-11-25T09:26:42.994Z,11.00
2023-11-25T09:29:11.757Z,10.25
2023-11-25T09:31:39.919Z,8.63
2023-11-25T09:34:09.539Z,6.35
2023-11-25T09:36:37.706Z,7.07
2023-11-25T09:39:10.842Z,7.10
2023-11-25T09:41:39.172Z,9.93
2023-11-25T09:44:09.495Z,9.00
2023-11-25T09:46:38.058Z,9.13
2023-11-25T09:49:06.318Z,7.05
2023-11-25T09:51:34.960Z,10.50
2023-11-25T09:54:09.271Z,9.52
2023-11-25T09:56:38.173Z,7.40
2023-11-25T09:59:08.333Z,8.57
2023-11-25T10:01:37.931Z,9.93
2023-11-25T10:04:09.305Z,8.68
2023-11-25T10:06:38.254Z,7.80
2023-11-25T10:09:10.989Z,5.63
2023-11-25T10:11:43.726Z,6.93
2023-11-25T10:14:14.474Z,4.50
2023-11-25T10:16:47.140Z,13.67
2023-11-25T10:19:22.755Z,8.80
2023-11-25T10:21:51.698Z,5.97
2023-11-25T10:24:22.287Z,8.25
2023-11-25T10:26:52.227Z,4.40
2023-11-25T10:29:21.717Z,4.78
2023-11-25T10:31:56.487Z,7.00
2023-11-25T10:34:25.787Z,6.10
2023-11-25T10:36:54.326Z,5.93
2023-11-25T10:39:27.704Z,5.57
2023-11-25T10:41:55.965Z,7.35
2023-11-25T10:44:25.291Z,4.38
2023-11-25T10:46:57.255Z,6.10
2023-11-25T10:49:26.032Z,7.60
2023-11-25T10:51:54.790Z,6.18
2023-11-25T10:54:27.584Z,7.40
2023-11-25T10:56:56.914Z,8.35
2023-11-25T10:59:28.642Z,6.30
2023-11-25T11:02:00.550Z,6.05
2023-11-25T11:04:34.538Z,10.80
2023-11-25T11:07:06.064Z,4.30
2023-11-25T11:09:38.595Z,10.55
2023-11-25T11:12:09.021Z,4.20
2023-11-25T11:14:42.550Z,4.00
2023-11-25T11:17:19.357Z,6.33
2023-11-25T11:19:52.980Z,8.25
2023-11-25T11:22:23.612Z,6.75
2023-11-25T11:25:10.080Z,7.18
2023-11-25T11:27:46.942Z,5.90
2023-11-25T11:30:22.253Z,7.07
2023-11-25T11:32:50.938Z,8.33
2023-11-25T11:35:22.263Z,8.55
2023-11-25T11:37:51.174Z,5.40
2023-11-25T11:40:23.928Z,6.85
2023-11-25T11:42:52.114Z,7.40
2023-11-25T11:45:23.915Z,8.48
2023-11-25T11:47:54.254Z,8.57
2023-11-25T11:50:24.190Z,6.45
2023-11-25T11:53:14.837Z,6.82
2023-11-25T11:55:51.123Z,25.80
2023-11-25T11:58:20.279Z,14.27
2023-11-25T12:00:49.626Z,15.77
2023-11-25T12:03:19.056Z,8.63
2023-11-25T12:05:47.499Z,11.02
2023-11-25T12:08:16.671Z,10.18
2023-11-25T12:10:46.188Z,5.95
2023-11-25T12:13:14.500Z,8.77
2023-11-25T12:15:42.651Z,9.23
2023-11-25T12:18:12.834Z,9.27
2023-11-25T12:20:41.503Z,7.55
2023-11-25T12:23:10.344Z,10.65
2023-11-25T12:25:38.640Z,6.97
2023-11-25T12:28:09.628Z,10.68
2023-11-25T12:30:38.615Z,11.85
2023-11-25T12:33:08.150Z,6.93
2023-11-25T12:35:36.917Z,9.70
2023-11-25T12:38:14.392Z,6.80
2023-11-25T12:40:46.078Z,8.52
2023-11-25T12:43:17.300Z,7.72
2023-11-25T12:45:47.939Z,6.67
2023-11-25T12:48:21.874Z,10.32
2023-11-25T12:51:04.698Z,6.17
2023-11-25T12:53:33.228Z,6.13
2023-11-25T12:56:01.617Z,11.32
2023-11-25T12:58:32.395Z,6.85
2023-11-25T13:01:01.320Z,6.80
2023-11-25T13:03:32.652Z,5.93
2023-11-25T13:06:01.946Z,5.32
2023-11-25T13:08:32.921Z,6.45
2023-11-25T13:11:04.832Z,5.55
2023-11-25T13:13:35.466Z,7.25
2023-11-25T13:16:06.232Z,5.35
2023-11-25T13:18:34.472Z,10.07
2023-11-25T13:21:07.758Z,7.35
2023-11-25T13:23:36.160Z,8.93
2023-11-25T13:26:04.336Z,7.53
2023-11-25T13:28:33.951Z,8.77
2023-11-25T13:31:02.144Z,5.40
2023-11-25T13:33:30.442Z,10.43
2023-11-25T13:35:58.585Z,8.23
2023-11-25T13:38:26.848Z,7.15
2023-11-25T13:40:55.026Z,7.88
2023-11-25T13:43:23.111Z,6.50
2023-11-25T13:45:52.816Z,8.05
2023-11-25T13:48:20.882Z,4.50
2023-11-25T13:50:49.115Z,6.25
2023-11-25T13:53:19.423Z,8.07
2023-11-25T13:55:49.847Z,8.75
2023-11-25T13:58:18.284Z,7.47
2023-11-25T14:00:46.665Z,8.20
2023-11-25T14:03:17.147Z,6.60
2023-11-25T14:05:47.103Z,9.00
2023-11-25T14:08:18.626Z,7.25
2023-11-25T14:10:46.841Z,8.40
2023-11-25T14:13:16.919Z,6.63
2023-11-25T14:15:45.097Z,6.93
2023-11-25T14:18:13.235Z,4.10
2023-11-25T14:20:43.338Z,2.20
2023-11-25T14:23:11.909Z,4.35
2023-11-25T14:25:41.872Z,2.67
2023-11-25T14:28:11.273Z,1.60
2023-11-25T14:30:39.617Z,3.05
2023-11-25T14:33:07.721Z,4.97
2023-11-25T14:35:37.225Z,3.58
2023-11-25T14:38:07.781Z,3.67
2023-11-25T14:40:39.631Z,6.20
2023-11-25T14:43:08.932Z,7.70
2023-11-25T14:45:37.162Z,4.78
2023-11-25T14:48:06.292Z,9.55
2023-11-25T14:50:39.266Z,5.38
2023-11-25T14:53:09.060Z,3.33
2023-11-25T14:55:37.307Z,4.57
2023-11-25T14:58:05.515Z,5.63
2023-11-25T15:00:33.856Z,2.25
2023-11-25T15:03:02.006Z,6.70
2023-11-25T15:05:30.409Z,6.00
2023-11-25T15:07:58.635Z,4.40
2023-11-25T15:10:28.113Z,5.17
2023-11-25T15:12:57.167Z,2.50
2023-11-25T15:15:26.173Z,5.50
2023-11-25T15:17:54.342Z,7.88
2023-11-25T15:20:23.407Z,11.30
2023-11-25T15:22:52.337Z,12.15
2023-11-25T15:25:22.055Z,14.65
2023-11-25T15:27:51.579Z,14.07
2023-11-25T15:30:19.664Z,5.00
2023-11-25T15:32:47.946Z,2.63
2023-11-25T15:35:16.385Z,4.40
2023-11-25T15:37:47.429Z,3.67
2023-11-25T15:40:15.644Z,3.47
2023-11-25T15:42:45.880Z,3.33
2023-11-25T15:45:16.710Z,6.85
2023-11-25T15:47:44.873Z,6.20
2023-11-25T15:50:13.338Z,3.03
2023-11-25T15:53:05.958Z,5.32
2023-11-25T15:59:43.664Z,4.50
2023-11-25T16:02:13.268Z,5.75
2023-11-25T16:04:41.481Z,4.57
2023-11-25T16:07:11.984Z,2.00
2023-11-25T16:09:42.216Z,6.43
2023-11-25T16:12:12.155Z,6.93
2023-11-25T16:14:40.346Z,6.25
2023-11-25T16:17:08.486Z,5.15
2023-11-25T16:19:38.785Z,5.10
2023-11-25T16:22:07.143Z,5.13
2023-11-25T16:24:35.671Z,6.47
2023-11-25T16:27:04.201Z,9.33
2023-11-25T16:29:32.298Z,3.55
2023-11-25T16:32:00.396Z,3.03
2023-11-25T16:34:28.681Z,8.63
2023-11-25T16:36:58.117Z,6.37
2023-11-25T16:39:29.045Z,9.15
2023-11-25T16:41:59.020Z,4.72
2023-11-25T16:44:27.267Z,3.25
2023-11-25T16:46:55.377Z,5.75
2023-11-25T16:49:23.442Z,4.53
2023-11-25T16:51:53.424Z,2.20
2023-11-25T16:54:22.886Z,5.23
2023-11-25T16:56:50.983Z,3.72
2023-11-25T16:59:20.039Z,5.22
2023-11-25T17:01:48.309Z,3.50
2023-11-25T17:04:16.849Z,4.70
2023-11-25T17:06:45.751Z,4.05
2023-11-25T17:09:13.830Z,4.97
2023-11-25T17:11:43.308Z,2.70
2023-11-25T17:14:11.372Z,3.22
2023-11-25T17:16:39.605Z,4.68
2023-11-25T17:19:07.725Z,3.85
2023-11-25T17:21:35.772Z,4.78
2023-11-25T17:24:05.006Z,3.08
2023-11-25T17:26:33.097Z,4.97
2023-11-25T17:29:02.523Z,6.70
2023-11-25T17:31:30.660Z,4.45
2023-11-25T17:33:58.662Z,3.80
2023-11-25T17:36:26.925Z,3.40
2023-11-25T17:38:55.048Z,4.90
2023-11-25T17:41:22.111Z,4.40
2023-11-25T17:43:50.511Z,3.80
2023-11-25T17:46:20.077Z,6.77
2023-11-25T17:48:48.235Z,10.25
2023-11-25T17:51:16.317Z,16.65
2023-11-25T17:53:44.429Z,7.63
2023-11-25T17:56:12.509Z,7.25
2023-11-25T17:58:40.602Z,11.40
2023-11-25T18:01:08.962Z,32.33
2023-11-25T18:03:38.473Z,12.57
2023-11-25T18:06:06.944Z,11.03
2023-11-25T18:08:34.973Z,9.20
2023-11-25T18:11:03.100Z,7.07
2023-11-25T18:13:31.162Z,12.10
2023-11-25T18:15:59.538Z,9.90
2023-11-25T18:18:27.647Z,7.90
2023-11-25T18:20:57.582Z,8.88
2023-11-25T18:23:25.655Z,9.10
2023-11-25T18:25:53.738Z,8.57
2023-11-25T18:28:21.855Z,10.90
2023-11-25T18:30:50.488Z,8.20
2023-11-25T18:33:18.768Z,11.15
2023-11-25T18:35:46.839Z,7.85
2023-11-25T18:38:16.394Z,8.85
2023-11-25T18:40:44.677Z,10.57
2023-11-25T18:43:12.781Z,12.52
2023-11-25T18:45:40.970Z,15.82
2023-11-25T18:48:09.087Z,28.65
2023-11-25T18:50:37.256Z,22.63
2023-11-25T18:53:05.680Z,21.50
2023-11-25T18:55:35.752Z,17.30
2023-11-25T18:58:04.996Z,14.93
2023-11-25T19:00:33.197Z,8.38
2023-11-25T19:03:01.706Z,8.90
2023-11-25T19:05:30.323Z,8.38
2023-11-25T19:07:58.395Z,7.43
2023-11-25T19:10:26.461Z,7.87
2023-11-25T19:12:56.264Z,8.38
2023-11-25T19:15:24.342Z,9.02
2023-11-25T19:17:52.532Z,9.93
2023-11-25T19:20:20.778Z,9.40
2023-11-25T19:22:48.991Z,10.02
2023-11-25T19:25:17.171Z,15.48
2023-11-25T19:27:45.254Z,15.27
2023-11-25T19:30:16.470Z,15.97
2023-11-25T19:32:44.559Z,12.07
2023-11-25T19:35:13.324Z,10.05
2023-11-25T19:37:41.721Z,13.18
2023-11-25T19:40:11.817Z,13.55
2023-11-25T19:42:40.092Z,10.65
2023-11-25T19:45:09.106Z,11.50
2023-11-25T19:47:39.535Z,9.77
2023-11-25T19:50:09.498Z,10.00
2023-11-25T19:52:39.361Z,9.70
2023-11-25T19:55:08.270Z,12.65
2023-11-25T19:57:37.438Z,10.45
2023-11-25T20:00:07.970Z,10.40
2023-11-25T20:02:41.169Z,8.60
2023-11-25T20:05:10.044Z,9.88
2023-11-25T20:07:38.201Z,9.52
2023-11-25T20:10:07.664Z,9.02
2023-11-25T20:12:35.761Z,11.93
2023-11-25T20:15:05.262Z,12.70
2023-11-25T20:17:33.444Z,12.07
2023-11-25T20:20:04.105Z,13.73
2023-11-25T20:22:32.262Z,11.85
2023-11-25T20:25:00.989Z,13.97
2023-11-25T20:27:29.106Z,12.10
2023-11-25T20:29:58.854Z,10.90
2023-11-25T20:32:27.083Z,11.88
2023-11-25T20:34:55.249Z,9.15
2023-11-25T20:37:24.677Z,12.45
2023-11-25T20:39:53.014Z,11.30
2023-11-25T20:42:21.124Z,8.20
2023-11-25T20:44:49.194Z,13.00
2023-11-25T20:47:17.349Z,9.35
2023-11-25T20:49:47.380Z,10.18
2023-11-25T20:52:15.705Z,10.00
2023-11-25T20:54:45.724Z,10.70
2023-11-25T20:57:15.335Z,9.77
2023-11-25T20:59:43.535Z,10.10
2023-11-25T21:02:11.998Z,10.80
2023-11-25T21:04:40.174Z,14.05
2023-11-25T21:07:09.000Z,12.32
2023-11-25T21:09:37.065Z,11.60
2023-11-25T21:12:07.352Z,11.10
2023-11-25T21:14:35.448Z,13.52
2023-11-25T21:17:04.992Z,17.35
2023-11-25T21:19:33.158Z,12.50
2023-11-25T21:22:01.386Z,12.77
2023-11-25T21:24:29.547Z,15.23
2023-11-25T21:26:57.739Z,16.58
2023-11-25T21:29:27.124Z,13.93
2023-11-25T21:31:55.218Z,13.23
2023-11-25T21:34:23.480Z,11.45
2023-11-25T21:36:51.633Z,12.48
2023-11-25T21:39:19.922Z,11.57
2023-11-25T21:41:47.992Z,10.00
2023-11-25T21:44:16.408Z,11.90
2023-11-25T21:46:46.052Z,12.32
2023-11-25T21:49:14.165Z,9.32
2023-11-25T21:51:42.296Z,11.30
2023-11-25T21:54:10.376Z,9.48
2023-11-25T21:56:38.511Z,9.95
2023-11-25T21:59:06.643Z,9.45
2023-11-25T22:01:34.779Z,12.50
2023-11-25T22:04:05.830Z,14.65
2023-11-25T22:06:34.115Z,11.90
2023-11-25T22:09:04.178Z,15.00
2023-11-25T22:11:37.052Z,13.82
2023-11-25T22:14:05.273Z,13.15
2023-11-25T22:16:33.360Z,10.77
2023-11-25T22:19:01.425Z,11.43
2023-11-25T22:21:31.087Z,11.18
2023-11-25T22:23:59.264Z,9.40
2023-11-25T22:26:33.946Z,7.25
2023-11-25T22:29:03.674Z,13.48
2023-11-25T22:31:32.154Z,11.50
2023-11-25T22:34:00.884Z,9.00
2023-11-25T22:36:31.832Z,8.75
2023-11-25T22:38:59.948Z,9.50
2023-11-25T22:41:28.022Z,8.05
2023-11-25T22:43:56.146Z,9.13
2023-11-25T22:46:25.357Z,10.77
2023-11-25T22:48:54.170Z,8.43
2023-11-25T22:51:24.835Z,11.60
2023-11-25T22:53:54.948Z,7.63
2023-11-25T22:56:23.075Z,11.48
2023-11-25T22:58:51.232Z,9.50
2023-11-25T23:01:28.157Z,7.38
2023-11-25T23:03:56.777Z,13.55
2023-11-25T23:06:25.098Z,8.30
2023-11-25T23:08:54.593Z,8.18
2023-11-25T23:11:23.359Z,12.82
2023-11-25T23:13:51.645Z,13.00
2023-11-25T23:16:19.772Z,21.70
2023-11-25T23:18:47.838Z,25.45
2023-11-25T23:21:15.918Z,24.33
2023-11-25T23:23:48.488Z,26.50
2023-11-25T23:26:18.658Z,20.60
2023-11-25T23:28:46.940Z,14.02
2023-11-25T23:31:15.529Z,11.40
2023-11-25T23:33:43.671Z,10.32
2023-11-25T23:36:11.857Z,9.40
2023-11-25T23:38:39.926Z,8.98
2023-11-25T23:41:08.478Z,13.45
2023-11-25T23:43:38.024Z,9.75
2023-11-25T23:46:07.022Z,9.82
2023-11-25T23:48:36.492Z,10.00
2023-11-25T23:51:04.998Z,6.95
2023-11-25T23:53:33.031Z,9.63
2023-11-25T23:56:01.198Z,9.50
2023-11-25T23:58:29.310Z,9.05
